Thursday, July 19, 2018, 5:27 AM GMT
Back to Local

CYOY, Valcartier Airport

Location: , , Canada Lat: 46.9
Local Time: 5:27 AM GMT ( 5:27 GMT) Lon: -71.5
Time Zone: GMT Elev: 551 ft

Show me the last for .
Show Coded

Time T Td Feel RH Dir Speed Gust Alt SLP Vis Weather Sky Remarks
2018-07-19 05:00 48 46 - 93 - Calm - 29.99 30.00 9 CLR None
2018-07-19 04:00 50 48 - 93 - Calm - 29.98 29.99 9 CLR None
2018-07-19 03:00 52 50 - 93 340° 2 - 29.97 29.98 15 CLR None
2018-07-19 02:00 55 50 - 82 - Calm - 29.97 29.98 15 CLR None
2018-07-19 01:00 61 48 - 63 290° 5 - 29.95 29.96 15 FEW240 None
2018-07-19 00:00 68 46 - 45 290° 5 - 29.93 29.94 15 FEW240 None
2018-07-18 23:00 70 45 - 40 290° 9 - 29.92 29.93 15 FEW068 FEW240 None
2018-07-18 22:00 72 46 75 40 280° 6 - 29.91 29.92 15 FEW065 None
2018-07-18 21:00 70 46 - 43 330° 8 - 29.92 29.92 15 SCT060 None
2018-07-18 20:00 72 48 76 43 300° 10 17 29.91 29.92 15 SCT058 None
2018-07-18 19:00 68 45 - 42 360° 9 17 29.91 29.92 15 SCT058 None
2018-07-18 18:00 70 46 - 43 280° 9 18 29.91 29.91 15 SCT050 None
2018-07-18 17:00 68 48 - 49 320° 13 20 29.91 29.92 15 SCT045 None
2018-07-18 16:00 66 46 - 48 330° 8 18 29.91 29.92 15 FEW040 None
2018-07-18 15:00 64 46 - 52 330° 10 17 29.92 29.92 15 FEW040 None
2018-07-18 14:00 63 46 - 55 300° 9 - 29.91 29.92 15 FEW030 None
2018-07-18 13:00 61 46 - 59 320° 14 - 29.90 29.91 15 FEW025 None
2018-07-18 12:00 61 48 - 63 320° 9 - 29.89 29.90 9 FEW066 FEW074 FEW083 None
2018-07-18 11:00 57 48 - 71 330° 6 17 29.88 29.89 9 FEW085 None
2018-07-18 10:00 57 48 - 71 340° 9 - 29.85 29.85 9 FEW071 FEW078 None
2018-07-18 09:00 55 48 - 76 350° 8 - 29.83 29.83 9 CLR None
2018-07-18 08:00 57 52 - 82 330° 7 - 29.82 29.83 9 FEW028 FEW061 None
2018-07-18 07:00 59 52 - 77 360° 8 - 29.80 29.81 9 FEW030 FEW057 BKN061 None
2018-07-18 06:00 61 52 - 72 350° 10 - 29.79 29.79 9 SCT033 None

Support USWX by starting your Amazon purchase here.